Time;durP1;ratioP1;P1;durP2;ratioP2;P2;SDS_P1;SDS_P2;PMS_P1;PMS_P2;Temp;Humidity;BMP_temperature;BMP_pressure;BME280_temperature;BME280_humidity;BME280_pressure;Samples;Min_cycle;Max_cycle;Signal;HPM_P1;HPM_P2
2024/02/27 00:03:52;;;;;;;20.85;7.78;;;;;;;9.90;89.39;99387.66;5114848;28;20498;-77
2024/02/27 00:06:18;;;;;;;16.45;7.60;;;;;;;9.77;89.98;99389.47;5113700;28;20060;-76
2024/02/27 00:08:43;;;;;;;13.23;7.30;;;;;;;9.77;89.64;99389.47;5115107;28;20035;-75
2024/02/27 00:11:09;;;;;;;15.48;7.28;;;;;;;9.88;90.17;99390.78;5096165;28;20030;-75
2024/02/27 00:13:34;;;;;;;16.25;8.45;;;;;;;9.84;89.48;99389.81;5114567;28;20036;-76
2024/02/27 00:16:00;;;;;;;16.05;7.78;;;;;;;10.00;89.29;99400.44;5095529;28;20051;-76
2024/02/27 00:18:25;;;;;;;17.27;9.77;;;;;;;9.90;89.51;99391.28;5094618;28;20031;-75
2024/02/27 00:20:51;;;;;;;16.70;9.02;;;;;;;9.84;90.08;99403.78;5110791;28;20077;-75
2024/02/27 00:23:16;;;;;;;14.73;8.07;;;;;;;9.77;89.74;99400.66;5114412;28;20030;-76
2024/02/27 00:25:42;;;;;;;21.23;9.73;;;;;;;9.89;89.03;99403.59;5114413;28;20024;-76
2024/02/27 00:28:07;;;;;;;20.88;10.25;;;;;;;9.89;87.89;99405.56;5113433;28;20047;-75
2024/02/27 00:30:32;;;;;;;15.68;8.55;;;;;;;9.81;87.85;99410.84;5096108;28;20035;-76
2024/02/27 00:32:58;;;;;;;20.05;8.98;;;;;;;9.83;88.59;99404.94;5114112;28;20023;-76
2024/02/27 00:35:23;;;;;;;18.08;9.30;;;;;;;9.85;88.44;99413.78;5095889;28;20061;-76
2024/02/27 00:37:49;;;;;;;17.48;8.90;;;;;;;9.81;89.02;99408.03;5113937;28;20388;-76
2024/02/27 00:40:14;;;;;;;18.83;8.32;;;;;;;9.86;87.42;99409.03;5095001;28;20061;-76
2024/02/27 00:42:41;;;;;;;16.63;8.38;;;;;;;9.85;88.37;99416.59;5113843;28;20023;-76
2024/02/27 00:45:06;;;;;;;13.27;8.50;;;;;;;9.85;87.88;99419.38;5095668;28;20019;-76
2024/02/27 00:47:32;;;;;;;15.30;7.35;;;;;;;9.82;88.54;99414.47;5095288;28;20045;-76
2024/02/27 00:49:57;;;;;;;16.13;7.65;;;;;;;9.84;89.20;99417.75;5100987;28;20408;-76
2024/02/27 00:52:24;;;;;;;17.92;8.85;;;;;;;9.96;88.53;99417.06;5093362;28;20089;-76
2024/02/27 00:54:49;;;;;;;17.15;9.35;;;;;;;9.90;88.27;99413.63;5093464;28;20077;-75
2024/02/27 00:57:15;;;;;;;21.00;8.77;;;;;;;9.92;88.13;99408.53;5092868;28;20540;-76
2024/02/27 00:59:41;;;;;;;29.05;13.05;;;;;;;9.98;88.01;99401.59;5090050;28;20028;-76
2024/02/27 01:02:06;;;;;;;27.92;14.30;;;;;;;10.10;87.26;99411.25;5113645;28;20024;-76
2024/02/27 01:04:32;;;;;;;31.67;12.23;;;;;;;10.27;86.56;99402.00;5095253;28;20415;-77
2024/02/27 01:06:58;;;;;;;22.63;12.02;;;;;;;10.31;86.46;99408.56;5095390;28;20109;-77
2024/02/27 01:09:23;;;;;;;21.25;12.10;;;;;;;10.39;85.96;99407.72;5093277;28;20101;-77
2024/02/27 01:11:49;;;;;;;24.73;11.82;;;;;;;10.46;85.60;99401.63;5091814;28;20047;-76
2024/02/27 01:14:14;;;;;;;28.30;12.73;;;;;;;10.46;84.87;99406.41;5104515;28;20031;-75
2024/02/27 01:16:42;;;;;;;19.95;10.23;;;;;;;10.37;85.41;99406.41;5113203;28;20056;-76
2024/02/27 01:19:08;;;;;;;25.77;11.73;;;;;;;10.36;85.58;99415.94;5111961;28;20024;-76
2024/02/27 01:21:34;;;;;;;19.33;9.25;;;;;;;10.33;85.33;99416.63;5094883;28;20508;-76
2024/02/27 01:23:59;;;;;;;14.10;8.18;;;;;;;10.22;85.77;99411.38;5094472;28;20031;-76
2024/02/27 01:26:25;;;;;;;17.63;9.52;;;;;;;10.14;86.84;99420.66;5113259;28;20076;-77
2024/02/27 01:28:50;;;;;;;20.00;9.10;;;;;;;10.10;87.11;99419.66;5112697;28;20066;-76
2024/02/27 01:31:16;;;;;;;16.38;8.68;;;;;;;9.94;88.97;99422.97;5111875;28;20031;-76
2024/02/27 01:33:42;;;;;;;16.67;9.38;;;;;;;9.87;89.36;99411.47;5112817;28;20020;-76
2024/02/27 01:36:08;;;;;;;16.00;9.23;;;;;;;9.73;90.97;99411.69;5112956;28;20480;-76
2024/02/27 01:38:33;;;;;;;18.25;8.93;;;;;;;9.73;91.24;99417.28;5112722;28;20055;-76
2024/02/27 01:40:59;;;;;;;19.33;9.15;;;;;;;9.74;90.85;99412.50;5113046;28;20016;-76
2024/02/27 01:43:25;;;;;;;16.55;8.30;;;;;;;9.65;91.91;99415.31;5094480;28;20031;-76
2024/02/27 01:46:05;;;;;;;15.38;8.13;;;;;;;9.81;91.07;99418.41;5108512;28;20024;-76
2024/02/27 01:48:33;;;;;;;;;;;;;;;9.80;90.85;99422.34;5092020;28;20016;-76
2024/02/27 01:50:59;;;;;;;18.17;8.80;;;;;;;9.85;91.20;99424.97;5074219;28;19947;-76
2024/02/27 01:53:24;;;;;;;18.70;9.32;;;;;;;9.94;90.96;99422.97;5073787;28;20534;-76
2024/02/27 01:55:50;;;;;;;20.30;10.00;;;;;;;10.04;90.36;99418.19;5092261;28;20039;-77
2024/02/27 01:58:16;;;;;;;17.10;8.95;;;;;;;9.97;90.17;99416.72;5092173;28;20055;-75
2024/02/27 02:00:44;;;;;;;21.83;9.55;;;;;;;9.80;91.41;99419.56;5093944;28;20040;-76
2024/02/27 02:03:11;;;;;;;17.92;9.88;;;;;;;9.51;92.80;99415.47;5091945;28;20028;-76
2024/02/27 02:05:37;;;;;;;14.52;9.57;;;;;;;9.38;94.67;99426.47;5100951;28;20039;-73
2024/02/27 02:08:03;;;;;;;25.83;10.07;;;;;;;9.27;95.65;99414.81;5112608;28;20537;-73
2024/02/27 02:10:28;;;;;;;23.00;10.50;;;;;;;9.57;94.07;99418.91;5081187;28;20032;-73
2024/02/27 02:12:56;;;;;;;18.52;9.68;;;;;;;9.43;92.81;99419.91;5091781;28;20077;-73
2024/02/27 02:15:23;;;;;;;25.00;10.07;;;;;;;9.27;95.08;99417.63;5076650;28;20031;-73
2024/02/27 02:17:51;;;;;;;20.13;11.07;;;;;;;9.46;93.79;99418.44;5112361;28;20023;-73
2024/02/27 02:20:17;;;;;;;16.40;9.57;;;;;;;9.69;93.02;99422.69;5097475;28;20031;-74
2024/02/27 02:22:42;;;;;;;20.17;10.13;;;;;;;9.62;93.09;99419.56;5091647;28;20024;-73
2024/02/27 02:25:11;;;;;;;21.17;9.18;;;;;;;9.74;92.56;99429.25;5091881;28;20477;-73
2024/02/27 02:27:43;;;;;;;23.58;10.32;;;;;;;9.76;92.06;99415.78;5073422;28;20177;-73
2024/02/27 02:30:11;;;;;;;17.88;9.20;;;;;;;9.90;90.93;99432.34;5091272;28;20030;-73
2024/02/27 02:32:45;;;;;;;14.98;8.73;;;;;;;9.78;90.44;99433.84;5111889;28;20112;-73
2024/02/27 02:35:10;;;;;;;18.88;9.70;;;;;;;9.39;92.86;99427.31;5111734;28;20496;-73
2024/02/27 02:37:36;;;;;;;18.70;10.18;;;;;;;9.08;95.72;99425.47;5112130;28;20088;-73
2024/02/27 02:40:02;;;;;;;23.23;11.25;;;;;;;9.37;94.81;99422.03;5111805;28;20384;-74
2024/02/27 02:42:28;;;;;;;18.50;9.75;;;;;;;9.60;93.59;99409.91;5111847;28;20020;-74
2024/02/27 02:44:53;;;;;;;16.42;10.05;;;;;;;9.76;92.29;99410.19;5111760;28;20028;-73
2024/02/27 02:47:19;;;;;;;19.33;9.70;;;;;;;9.69;91.67;99411.53;5093131;28;20085;-73
2024/02/27 02:49:44;;;;;;;19.42;10.05;;;;;;;9.59;92.54;99405.44;5091377;28;20096;-73
2024/02/27 02:52:10;;;;;;;20.58;9.25;;;;;;;9.61;92.24;99417.94;5091120;28;20027;-73
2024/02/27 02:54:35;;;;;;;17.02;9.68;;;;;;;9.76;91.45;99421.38;5073864;28;20034;-73
2024/02/27 02:57:00;;;;;;;20.90;10.20;;;;;;;9.71;90.99;99413.97;5072953;28;20027;-73
2024/02/27 02:59:26;;;;;;;19.40;10.15;;;;;;;9.35;93.15;99412.34;5103425;28;20034;-73
2024/02/27 03:01:51;;;;;;;24.42;11.43;;;;;;;9.10;93.99;99415.63;5105697;28;20028;-73
2024/02/27 03:04:17;;;;;;;21.50;13.10;;;;;;;9.06;94.42;99417.44;5072907;28;20032;-73
2024/02/27 03:06:42;;;;;;;28.58;16.50;;;;;;;8.91;95.96;99438.25;5090813;28;20028;-72
2024/02/27 03:09:08;;;;;;;21.35;14.77;;;;;;;8.89;97.24;99432.19;5090968;28;20035;-73
2024/02/27 03:11:34;;;;;;;19.55;12.73;;;;;;;8.79;97.28;99438.84;5072857;28;20028;-73
2024/02/27 03:13:59;;;;;;;21.80;10.75;;;;;;;8.35;99.25;99421.16;5090742;28;20036;-73
2024/02/27 03:16:25;;;;;;;20.08;11.05;;;;;;;8.71;98.77;99442.47;5091143;28;20035;-73
2024/02/27 03:18:50;;;;;;;17.98;9.90;;;;;;;8.70;97.47;99436.06;5081609;28;20032;-73
2024/02/27 03:21:16;;;;;;;17.80;9.40;;;;;;;8.80;97.05;99439.69;5091045;28;20032;-73
2024/02/27 03:23:41;;;;;;;15.48;8.90;;;;;;;8.97;96.24;99436.13;5106092;28;20032;-73
2024/02/27 03:26:06;;;;;;;18.50;8.18;;;;;;;9.08;95.48;99439.41;5111276;28;20032;-73
2024/02/27 03:28:32;;;;;;;21.00;8.32;;;;;;;9.11;95.42;99435.97;5092381;28;20027;-74
2024/02/27 03:30:57;;;;;;;17.67;8.98;;;;;;;9.05;95.93;99442.88;5111150;28;20024;-73
2024/02/27 03:33:23;;;;;;;16.73;8.65;;;;;;;9.01;94.81;99437.13;5091778;28;20027;-73
2024/02/27 03:35:48;;;;;;;16.75;8.10;;;;;;;8.97;95.09;99438.91;5115393;28;20035;-72
2024/02/27 03:38:14;;;;;;;21.70;8.70;;;;;;;8.76;96.61;99450.66;5115315;28;20027;-73
2024/02/27 03:40:39;;;;;;;28.45;10.05;;;;;;;8.74;97.17;99446.56;5096962;28;20031;-73
2024/02/27 03:43:05;;;;;;;17.75;8.50;;;;;;;8.76;97.33;99447.88;5115131;28;20031;-73
2024/02/27 03:45:30;;;;;;;18.95;8.43;;;;;;;8.54;98.43;99451.59;5115073;28;20032;-73
2024/02/27 03:47:55;;;;;;;16.08;8.23;;;;;;;8.55;97.92;99433.72;5095823;28;20031;-73
2024/02/27 03:50:21;;;;;;;19.63;8.93;;;;;;;8.49;97.54;99446.94;5112753;28;20034;-74
2024/02/27 03:52:46;;;;;;;21.52;10.10;;;;;;;8.50;98.20;99462.56;5108861;28;20040;-73
2024/02/27 03:55:12;;;;;;;18.55;10.38;;;;;;;8.45;98.07;99465.47;5094424;28;20523;-72
2024/02/27 03:57:37;;;;;;;17.92;8.85;;;;;;;8.74;97.07;99466.06;5094478;28;20528;-73
2024/02/27 04:00:04;;;;;;;15.70;8.18;;;;;;;8.70;96.31;99463.94;5107240;28;20038;-73
2024/02/27 04:02:29;;;;;;;19.60;9.65;;;;;;;8.66;95.70;99464.91;5093502;28;20024;-73
2024/02/27 04:04:55;;;;;;;17.33;7.90;;;;;;;8.78;95.27;99478.25;5093494;28;20516;-73
2024/02/27 04:07:20;;;;;;;18.38;8.80;;;;;;;8.61;95.50;99468.66;5093657;28;20132;-72
2024/02/27 04:09:45;;;;;;;17.58;8.68;;;;;;;8.50;96.61;99473.69;5093312;28;20031;-73
2024/02/27 04:12:11;;;;;;;16.90;8.82;;;;;;;8.42;96.43;99478.06;5098621;28;20024;-73
2024/02/27 04:14:36;;;;;;;18.60;9.55;;;;;;;8.10;98.35;99480.00;5113725;28;20028;-73
2024/02/27 04:17:02;;;;;;;16.60;10.45;;;;;;;7.88;99.24;99469.72;5113724;28;20413;-73
2024/02/27 04:19:27;;;;;;;22.30;10.30;;;;;;;7.66;100.00;99484.44;5108917;28;20404;-73
2024/02/27 04:21:53;;;;;;;18.45;9.57;;;;;;;7.58;100.00;99478.50;5112188;28;20027;-73
2024/02/27 04:24:18;;;;;;;18.85;11.00;;;;;;;7.47;100.00;99476.25;5095129;28;20024;-73
2024/02/27 04:26:44;;;;;;;22.05;11.23;;;;;;;7.38;100.00;99479.81;5113646;28;20024;-72
2024/02/27 04:29:09;;;;;;;22.52;11.63;;;;;;;7.32;100.00;99485.81;5111399;28;20016;-73
2024/02/27 04:31:35;;;;;;;23.88;11.13;;;;;;;7.29;100.00;99485.25;5112836;28;20027;-73
2024/02/27 04:34:00;;;;;;;22.67;11.70;;;;;;;7.25;100.00;99497.34;5113348;28;20433;-73
2024/02/27 04:36:26;;;;;;;21.45;12.48;;;;;;;7.41;100.00;99493.09;5113229;28;20419;-71
2024/02/27 04:38:51;;;;;;;29.15;13.50;;;;;;;7.24;100.00;99490.97;5113342;28;20024;-71
2024/02/27 04:41:17;;;;;;;25.13;12.70;;;;;;;7.08;100.00;99489.66;5113689;28;20395;-71
2024/02/27 04:43:42;;;;;;;19.58;12.55;;;;;;;7.26;100.00;99487.88;5112790;28;20484;-72
2024/02/27 04:46:08;;;;;;;30.50;12.90;;;;;;;7.20;100.00;99491.88;5112227;28;20043;-72
2024/02/27 04:48:34;;;;;;;32.97;14.45;;;;;;;7.02;100.00;99483.38;5094687;28;20023;-72
2024/02/27 04:50:59;;;;;;;28.50;13.35;;;;;;;7.06;100.00;99494.69;5103205;28;20428;-71
2024/02/27 04:53:25;;;;;;;31.48;14.25;;;;;;;7.19;100.00;99493.88;5113232;28;20038;-72
2024/02/27 04:55:50;;;;;;;27.95;14.15;;;;;;;7.42;100.00;99497.50;5112882;28;20031;-72
2024/02/27 04:58:15;;;;;;;27.90;13.75;;;;;;;7.39;100.00;99498.16;5111056;28;20505;-72
2024/02/27 05:00:41;;;;;;;26.95;15.30;;;;;;;7.18;100.00;99502.50;5099429;28;20108;-72
2024/02/27 05:03:06;;;;;;;28.90;15.73;;;;;;;7.17;100.00;99507.25;5092273;28;20016;-71
2024/02/27 05:05:32;;;;;;;29.15;15.30;;;;;;;7.02;100.00;99517.56;5073930;28;20036;-71
2024/02/27 05:07:57;;;;;;;36.58;16.58;;;;;;;6.79;100.00;99511.09;5074148;28;20040;-72
2024/02/27 05:10:23;;;;;;;32.80;15.88;;;;;;;6.62;100.00;99520.03;5080198;28;20027;-72
2024/02/27 05:12:48;;;;;;;31.77;16.67;;;;;;;6.72;100.00;99530.97;5094125;28;20027;-72
2024/02/27 05:15:14;;;;;;;32.53;17.65;;;;;;;6.43;100.00;99522.91;5112486;28;20080;-72
2024/02/27 05:17:39;;;;;;;34.78;18.15;;;;;;;6.38;100.00;99534.91;5099589;28;20144;-72
2024/02/27 05:20:05;;;;;;;30.25;17.35;;;;;;;6.27;100.00;99537.03;5074194;28;20027;-72
2024/02/27 05:22:31;;;;;;;34.28;18.65;;;;;;;6.24;100.00;99536.84;5091998;28;20043;-72
2024/02/27 05:24:56;;;;;;;33.22;18.98;;;;;;;6.16;100.00;99541.97;5091897;28;20511;-72
2024/02/27 05:27:21;;;;;;;39.38;18.80;;;;;;;6.25;100.00;99542.06;5092257;28;20427;-72
2024/02/27 05:29:47;;;;;;;36.40;19.35;;;;;;;6.24;100.00;99548.75;5106307;28;20055;-71
2024/02/27 05:32:12;;;;;;;30.60;17.27;;;;;;;6.23;100.00;99551.88;5089699;28;20050;-73
2024/02/27 05:34:38;;;;;;;40.80;19.25;;;;;;;6.17;100.00;99557.50;5097982;28;20028;-73
2024/02/27 05:37:03;;;;;;;40.58;19.45;;;;;;;6.25;100.00;99567.06;5086680;28;20409;-71
2024/02/27 05:39:29;;;;;;;37.75;18.48;;;;;;;6.21;100.00;99565.22;5111238;28;20023;-71
2024/02/27 05:41:54;;;;;;;38.35;18.08;;;;;;;6.19;100.00;99568.31;5109207;28;20031;-72
2024/02/27 05:44:20;;;;;;;32.88;17.80;;;;;;;6.26;100.00;99568.72;5111288;28;20020;-72
2024/02/27 05:46:45;;;;;;;39.13;19.52;;;;;;;6.35;100.00;99568.03;5092189;28;20522;-72
2024/02/27 05:49:11;;;;;;;40.10;18.98;;;;;;;6.47;100.00;99573.94;5110257;28;20023;-74
2024/02/27 05:51:39;;;;;;;36.28;19.30;;;;;;;6.54;100.00;99581.88;5107391;28;20068;-74
2024/02/27 05:54:05;;;;;;;41.10;22.67;;;;;;;6.50;100.00;99581.66;5081864;28;20028;-76
2024/02/27 05:56:30;;;;;;;45.40;23.40;;;;;;;6.43;100.00;99582.06;5079822;28;20393;-74
2024/02/27 05:58:56;;;;;;;50.50;24.55;;;;;;;6.39;100.00;99585.75;5108362;28;20070;-72
2024/02/27 06:01:23;;;;;;;56.42;26.15;;;;;;;6.35;100.00;99591.09;5110827;28;20051;-71
2024/02/27 06:03:48;;;;;;;63.08;27.27;;;;;;;6.60;100.00;99598.16;5109394;28;20024;-73
2024/02/27 06:06:14;;;;;;;55.05;27.10;;;;;;;6.66;100.00;99595.31;5092400;28;20024;-74
2024/02/27 06:08:40;;;;;;;55.42;24.90;;;;;;;6.79;100.00;99602.00;5110226;28;20381;-72
2024/02/27 06:11:05;;;;;;;58.03;25.70;;;;;;;6.72;100.00;99611.59;5083848;28;20039;-73
2024/02/27 06:13:31;;;;;;;60.00;27.95;;;;;;;6.66;100.00;99598.09;5072582;28;20365;-73
2024/02/27 06:15:57;;;;;;;62.67;27.92;;;;;;;6.79;100.00;99608.41;5095320;28;20031;-73
2024/02/27 06:18:22;;;;;;;62.40;30.13;;;;;;;6.86;100.00;99616.34;5073010;28;20088;-70
2024/02/27 06:23:32;;;;;;;63.40;29.95;;;;;;;6.81;100.00;99624.75;5107539;28;20035;-70
2024/02/27 06:25:57;;;;;;;61.55;29.45;;;;;;;6.92;100.00;99631.78;5107236;28;20375;-73
2024/02/27 06:28:23;;;;;;;86.75;44.80;;;;;;;6.96;100.00;99623.66;5088915;28;20034;-70
2024/02/27 06:30:49;;;;;;;72.22;39.10;;;;;;;6.95;100.00;99633.13;5102455;28;20031;-73
2024/02/27 06:33:15;;;;;;;62.47;32.42;;;;;;;6.89;100.00;99632.41;5088477;28;20024;-73
2024/02/27 06:35:40;;;;;;;69.85;32.38;;;;;;;7.01;100.00;99631.91;5099694;28;20485;-69
2024/02/27 06:38:06;;;;;;;72.13;32.28;;;;;;;7.22;100.00;99643.47;5098279;28;20057;-71
2024/02/27 06:40:32;;;;;;;67.43;28.77;;;;;;;7.26;100.00;99649.25;5108709;28;20031;-71
2024/02/27 06:42:57;;;;;;;78.32;31.35;;;;;;;7.30;100.00;99653.91;5107564;28;20397;-73
2024/02/27 06:45:23;;;;;;;58.42;31.88;;;;;;;7.41;100.00;99648.94;5091798;28;20035;-76
2024/02/27 06:47:49;;;;;;;57.38;29.00;;;;;;;7.38;100.00;99657.06;5066793;28;20038;-71
2024/02/27 06:50:16;;;;;;;60.00;29.88;;;;;;;7.55;100.00;99656.44;5102222;28;20583;-72
2024/02/27 06:52:41;;;;;;;61.88;27.80;;;;;;;7.62;100.00;99656.88;5103663;28;20031;-72
2024/02/27 06:55:07;;;;;;;51.08;26.98;;;;;;;7.71;100.00;99654.19;5095114;28;20456;-75
2024/02/27 06:57:32;;;;;;;59.30;28.20;;;;;;;7.78;100.00;99656.53;5092747;28;20035;-75
2024/02/27 06:59:58;;;;;;;70.47;37.50;;;;;;;8.02;100.00;99664.63;5103659;28;20038;-75
2024/02/27 07:02:24;;;;;;;59.38;29.00;;;;;;;8.12;100.00;99650.47;5108041;28;20404;-75
2024/02/27 07:04:49;;;;;;;56.60;31.38;;;;;;;8.28;100.00;99659.28;5105700;28;20039;-74
2024/02/27 07:07:15;;;;;;;60.50;29.67;;;;;;;8.33;100.00;99657.53;5105612;28;20023;-74
2024/02/27 07:09:40;;;;;;;59.80;28.05;;;;;;;8.37;100.00;99653.78;5103935;28;20036;-74
2024/02/27 07:12:06;;;;;;;51.33;27.45;;;;;;;8.26;100.00;99657.94;5088408;28;20023;-73
2024/02/27 07:14:33;;;;;;;54.95;27.88;;;;;;;8.36;100.00;99668.06;5107242;28;20023;-75
2024/02/27 07:16:59;;;;;;;65.40;32.80;;;;;;;8.50;100.00;99668.84;5087956;28;20042;-77
2024/02/27 07:19:26;;;;;;;85.95;44.53;;;;;;;8.57;100.00;99669.25;5082481;28;20047;-78
2024/02/27 07:21:52;;;;;;;77.47;36.22;;;;;;;8.46;100.00;99667.81;5097320;28;20076;-74
2024/02/27 07:24:19;;;;;;;78.03;41.33;;;;;;;8.58;100.00;99672.84;5104093;28;20031;-73
2024/02/27 07:26:44;;;;;;;68.65;33.38;;;;;;;8.42;100.00;99677.94;5086888;28;20077;-74
2024/02/27 07:29:12;;;;;;;73.80;37.40;;;;;;;8.35;100.00;99685.91;5098688;28;20027;-75
2024/02/27 07:31:37;;;;;;;82.07;39.83;;;;;;;8.32;100.00;99680.94;5089274;28;20419;-69
2024/02/27 07:34:06;;;;;;;81.97;39.03;;;;;;;8.37;100.00;99678.06;5086494;28;20032;-71
2024/02/27 07:36:31;;;;;;;79.30;38.65;;;;;;;8.59;100.00;99673.69;5107226;28;20031;-73
2024/02/27 07:38:57;;;;;;;86.10;38.38;;;;;;;8.62;100.00;99681.41;5088018;28;20186;-72
2024/02/27 07:41:22;;;;;;;80.28;39.08;;;;;;;8.62;100.00;99686.97;5087494;28;20515;-72
2024/02/27 07:43:48;;;;;;;98.03;45.38;;;;;;;8.48;100.00;99675.84;5099812;28;20032;-72
2024/02/27 07:46:14;;;;;;;75.95;39.42;;;;;;;8.55;100.00;99679.88;5098760;28;20473;-73
2024/02/27 07:48:40;;;;;;;80.53;39.40;;;;;;;8.53;100.00;99679.38;5085749;28;20065;-71
2024/02/27 07:51:06;;;;;;;98.70;41.92;;;;;;;8.54;100.00;99672.63;5088762;28;20028;-72
2024/02/27 07:53:33;;;;;;;83.45;42.65;;;;;;;8.65;100.00;99680.75;5105007;28;20177;-73
2024/02/27 07:55:58;;;;;;;97.53;46.08;;;;;;;8.75;100.00;99688.03;5105126;28;20042;-72
2024/02/27 07:58:24;;;;;;;93.20;43.97;;;;;;;8.90;100.00;99692.41;5085102;28;20420;-72
2024/02/27 08:00:49;;;;;;;103.72;53.10;;;;;;;9.11;100.00;99693.53;5095632;28;20028;-74
2024/02/27 08:03:15;;;;;;;83.60;43.67;;;;;;;9.17;100.00;99685.00;5070591;28;20092;-74
2024/02/27 08:05:40;;;;;;;85.15;42.13;;;;;;;9.30;100.00;99695.28;5087076;28;20035;-72
2024/02/27 08:08:06;;;;;;;91.28;46.33;;;;;;;9.49;100.00;99695.03;5086586;28;20032;-73
2024/02/27 08:10:31;;;;;;;82.55;44.35;;;;;;;9.70;100.00;99697.22;5083147;28;20173;-71
2024/02/27 08:12:57;;;;;;;84.90;40.88;;;;;;;9.81;100.00;99690.19;5088519;28;20503;-73
2024/02/27 08:15:22;;;;;;;88.00;42.67;;;;;;;10.00;99.98;99688.25;5087864;28;20035;-71
2024/02/27 08:17:48;;;;;;;76.40;40.90;;;;;;;10.04;99.28;99694.88;5106780;28;20028;-71
2024/02/27 08:20:13;;;;;;;80.47;44.75;;;;;;;10.01;98.75;99676.78;5106860;28;20030;-71
2024/02/27 08:22:39;;;;;;;83.15;39.30;;;;;;;10.16;99.09;99686.66;5092202;28;20446;-68
2024/02/27 08:25:05;;;;;;;77.47;41.13;;;;;;;10.39;97.57;99690.13;5105243;28;20027;-69
2024/02/27 08:27:30;;;;;;;66.18;34.47;;;;;;;10.53;96.53;99684.41;5084726;28;20089;-69
2024/02/27 08:29:57;;;;;;;63.05;33.88;;;;;;;10.34;96.38;99675.47;5102509;28;20036;-70
2024/02/27 08:32:23;;;;;;;77.03;38.75;;;;;;;10.45;96.99;99690.00;5088983;28;20023;-69
2024/02/27 08:34:48;;;;;;;67.22;38.40;;;;;;;10.64;97.01;99689.66;5071712;28;20027;-70
2024/02/27 08:37:14;;;;;;;59.17;35.28;;;;;;;10.95;94.63;99691.41;5090037;28;20034;-71
2024/02/27 08:39:39;;;;;;;65.07;36.22;;;;;;;11.13;91.88;99694.19;5093292;28;20015;-75
2024/02/27 08:42:05;;;;;;;77.50;37.75;;;;;;;11.13;92.41;99695.00;5093008;28;20042;-73
2024/02/27 08:44:30;;;;;;;72.28;37.03;;;;;;;11.21;91.69;99694.16;5089305;28;20480;-75
2024/02/27 08:46:59;;;;;;;76.10;36.25;;;;;;;11.16;91.82;99691.56;5088405;28;20118;-77
2024/02/27 08:49:24;;;;;;;56.92;32.42;;;;;;;11.24;91.58;99695.47;5107330;28;20034;-71
2024/02/27 08:51:51;;;;;;;61.90;33.53;;;;;;;11.36;90.20;99691.97;5108438;28;20450;-71
2024/02/27 08:54:17;;;;;;;61.38;32.72;;;;;;;11.66;88.39;99698.44;5086503;28;20504;-73
2024/02/27 08:56:42;;;;;;;63.60;31.77;;;;;;;11.74;88.08;99696.75;5098646;28;20034;-74
2024/02/27 08:59:08;;;;;;;67.00;35.33;;;;;;;11.98;87.15;99691.69;5104866;28;20119;-73
2024/02/27 09:01:33;;;;;;;56.53;30.23;;;;;;;11.82;86.58;99689.44;5090119;28;20055;-74
2024/02/27 09:03:59;;;;;;;62.53;33.13;;;;;;;11.88;86.29;99692.88;5108365;28;20027;-74
2024/02/27 09:06:24;;;;;;;54.70;30.02;;;;;;;12.02;85.45;99687.91;5098551;28;20035;-73
2024/02/27 09:08:50;;;;;;;63.22;31.88;;;;;;;12.28;84.19;99692.50;5090718;28;20024;-77
2024/02/27 09:11:15;;;;;;;63.22;33.03;;;;;;;12.20;84.45;99688.59;5109572;28;20027;-73
2024/02/27 09:13:41;;;;;;;58.67;30.75;;;;;;;11.99;83.44;99696.94;5085925;28;20031;-72
2024/02/27 09:16:06;;;;;;;57.45;29.40;;;;;;;12.13;82.06;99699.53;5089796;28;20393;-71
2024/02/27 09:18:32;;;;;;;58.15;28.13;;;;;;;12.16;83.28;99695.22;5099170;28;20496;-71
2024/02/27 09:20:58;;;;;;;64.82;27.02;;;;;;;12.27;81.82;99690.03;5087383;28;20225;-71
2024/02/27 09:23:23;;;;;;;45.28;26.70;;;;;;;12.39;80.10;99689.28;5082408;28;20023;-72
2024/02/27 09:25:49;;;;;;;53.90;26.60;;;;;;;12.82;78.09;99698.50;5090637;28;20584;-70
2024/02/27 09:28:14;;;;;;;73.60;30.70;;;;;;;13.14;77.99;99693.22;5108264;28;20399;-71
2024/02/27 09:30:40;;;;;;;48.15;26.75;;;;;;;13.35;76.01;99687.53;5089633;28;20031;-71
2024/02/27 09:33:06;;;;;;;55.83;29.27;;;;;;;13.52;77.57;99686.53;5091834;28;20049;-71
2024/02/27 09:35:32;;;;;;;53.25;27.15;;;;;;;13.50;78.48;99685.25;5089544;28;20113;-70
2024/02/27 09:37:57;;;;;;;52.20;30.42;;;;;;;13.60;77.02;99682.78;5106636;28;20027;-70
2024/02/27 09:40:23;;;;;;;57.63;29.23;;;;;;;13.11;75.36;99680.69;5104992;28;20067;-71
2024/02/27 09:42:55;;;;;;;56.22;30.35;;;;;;;13.15;77.04;99690.06;5110917;28;20016;-72
2024/02/27 09:45:22;;;;;;;58.15;30.60;;;;;;;13.53;78.45;99676.09;5108108;28;20019;-72
2024/02/27 09:47:49;;;;;;;57.47;30.70;;;;;;;13.50;77.84;99688.06;5108486;28;20423;-72
2024/02/27 09:50:18;;;;;;;55.40;31.48;;;;;;;13.37;79.38;99678.75;5100285;28;20035;-72
2024/02/27 09:52:47;;;;;;;62.92;32.28;;;;;;;13.77;76.98;99669.69;5087355;28;20029;-72
2024/02/27 09:55:13;;;;;;;54.13;30.42;;;;;;;14.31;75.60;99668.56;5105713;28;20423;-72
2024/02/27 09:57:40;;;;;;;65.50;32.33;;;;;;;14.09;75.71;99669.88;5086622;28;20069;-72
2024/02/27 10:00:07;;;;;;;67.85;34.00;;;;;;;14.24;76.43;99665.50;5107748;28;20108;-71
2024/02/27 10:02:32;;;;;;;64.75;35.25;;;;;;;14.49;75.25;99659.00;5102573;28;20027;-70
2024/02/27 10:05:02;;;;;;;64.57;34.40;;;;;;;14.51;74.98;99662.28;5105813;28;20027;-70
2024/02/27 10:07:29;;;;;;;64.85;33.95;;;;;;;14.58;73.98;99657.66;5110843;28;20096;-70
2024/02/27 10:09:54;;;;;;;64.63;34.75;;;;;;;14.32;74.75;99656.13;5097171;28;20028;-70
2024/02/27 10:12:20;;;;;;;54.30;32.58;;;;;;;14.72;73.77;99642.38;5096552;28;20529;-70
2024/02/27 10:14:46;;;;;;;57.13;31.50;;;;;;;15.04;71.44;99650.09;5088758;28;20398;-70
2024/02/27 10:17:11;;;;;;;58.15;33.72;;;;;;;15.05;70.45;99654.53;5110535;28;20016;-69
2024/02/27 10:19:37;;;;;;;60.80;34.85;;;;;;;14.90;72.03;99650.50;5091936;28;20024;-69
2024/02/27 10:22:03;;;;;;;64.30;34.92;;;;;;;14.83;72.58;99651.13;5109650;28;20405;-70
2024/02/27 10:24:29;;;;;;;64.93;35.42;;;;;;;14.72;73.45;99645.22;5109924;28;20019;-70
2024/02/27 10:27:07;;;;;;;63.28;34.13;;;;;;;14.98;72.30;99647.53;5109313;28;20030;-69
2024/02/27 10:29:33;;;;;;;55.10;32.10;;;;;;;14.94;70.85;99645.81;5111419;28;20027;-68
2024/02/27 10:31:59;;;;;;;70.90;33.88;;;;;;;15.30;69.84;99647.56;5111203;28;20027;-69
2024/02/27 10:34:27;;;;;;;58.03;33.08;;;;;;;15.40;69.26;99642.56;5091442;28;20447;-68
2024/02/27 10:37:03;;;;;;;60.00;31.55;;;;;;;15.66;68.02;99638.38;5110304;28;20079;-69
2024/02/27 10:39:31;;;;;;;52.50;30.10;;;;;;;15.63;67.22;99639.09;5111054;28;20028;-70
2024/02/27 10:41:58;;;;;;;49.40;28.63;;;;;;;15.54;67.26;99633.66;5110587;28;20027;-68
2024/02/27 10:44:25;;;;;;;62.65;29.05;;;;;;;15.80;64.96;99641.53;5110961;28;20157;-70
2024/02/27 10:46:53;;;;;;;47.65;29.77;;;;;;;15.38;66.95;99630.84;5104268;28;20031;-71
2024/02/27 10:49:20;;;;;;;49.03;27.92;;;;;;;15.71;66.29;99638.09;5107726;28;20043;-71
2024/02/27 10:51:47;;;;;;;53.13;27.50;;;;;;;15.70;65.08;99636.47;5089677;28;20058;-69
2024/02/27 10:54:16;;;;;;;53.03;29.70;;;;;;;15.86;65.14;99650.53;5092441;28;20035;-71
2024/02/27 10:56:43;;;;;;;47.03;26.73;;;;;;;16.25;63.43;99644.19;5097958;28;20445;-70
2024/02/27 10:59:09;;;;;;;46.28;27.42;;;;;;;15.81;62.13;99633.91;5071354;28;20048;-73
2024/02/27 11:01:36;;;;;;;44.65;26.77;;;;;;;15.92;64.13;99634.16;5093621;28;20400;-72
2024/02/27 11:04:05;;;;;;;48.13;25.98;;;;;;;15.86;62.29;99634.44;5080546;28;20026;-72
2024/02/27 11:06:32;;;;;;;49.60;27.05;;;;;;;16.03;62.81;99632.41;5101031;28;20475;-72
2024/02/27 11:09:03;;;;;;;50.33;25.80;;;;;;;16.47;60.80;99622.06;5105912;28;20027;-72
2024/02/27 11:11:30;;;;;;;52.30;24.85;;;;;;;16.45;60.65;99622.41;5087177;28;20030;-72
2024/02/27 11:14:04;;;;;;;40.70;25.02;;;;;;;16.54;58.61;99617.38;5100862;28;20024;-71
2024/02/27 11:16:31;;;;;;;42.05;22.95;;;;;;;16.36;59.44;99611.34;5095146;28;20024;-71
2024/02/27 11:19:04;;;;;;;39.55;23.27;;;;;;;16.66;58.38;99602.28;5087209;28;20436;-74
2024/02/27 11:21:30;;;;;;;33.00;20.60;;;;;;;16.68;56.41;99601.91;5099764;28;20031;-73